Time;durP1;ratioP1;P1;durP2;ratioP2;P2;SDS_P1;SDS_P2;PMS_P1;PMS_P2;Temp;Humidity;BMP_temperature;BMP_pressure;BME280_temperature;BME280_humidity;BME280_pressure;Samples;Min_cycle;Max_cycle;Signal;HPM_P1;HPM_P2
2023/03/25 00:01:39;;;;;;;6.67;3.00;;;9.60;1.00;;;;;;4890925;29;20468;-78
2023/03/25 00:04:07;;;;;;;9.07;4.33;;;9.60;1.00;;;;;;4892079;29;20512;-79
2023/03/25 00:06:35;;;;;;;8.70;3.40;;;9.60;1.00;;;;;;4891171;29;21320;-78
2023/03/25 00:09:04;;;;;;;7.00;3.23;;;9.50;1.00;;;;;;4894693;29;21169;-79
2023/03/25 00:11:31;;;;;;;7.40;3.53;;;9.50;1.00;;;;;;4894237;29;20974;-79
2023/03/25 00:13:58;;;;;;;8.33;3.00;;;9.50;1.00;;;;;;4893220;29;20583;-79
2023/03/25 00:16:26;;;;;;;8.00;2.73;;;9.50;1.00;;;;;;4892844;29;20459;-79
2023/03/25 00:18:52;;;;;;;9.47;2.70;;;9.40;1.00;;;;;;4892101;29;20596;-79
2023/03/25 00:21:22;;;;;;;7.03;2.80;;;9.40;1.00;;;;;;4894839;29;20456;-78
2023/03/25 00:23:49;;;;;;;7.37;2.63;;;9.40;1.00;;;;;;4886981;29;20458;-79
2023/03/25 00:26:17;;;;;;;7.70;2.77;;;9.40;1.00;;;;;;4884566;29;20488;-78
2023/03/25 00:28:44;;;;;;;8.90;2.83;;;9.30;1.00;;;;;;4882630;29;20467;-79
2023/03/25 00:31:14;;;;;;;8.13;2.53;;;9.30;1.00;;;;;;4891387;29;20463;-79
2023/03/25 00:33:42;;;;;;;5.80;2.50;;;9.40;1.00;;;;;;4888576;29;21357;-78
2023/03/25 00:36:13;;;;;;;9.00;2.40;;;9.40;1.00;;;;;;4891077;29;20551;-79
2023/03/25 00:38:42;;;;;;;8.77;2.83;;;9.40;1.00;;;;;;4888636;29;20548;-80
2023/03/25 00:41:21;;;;;;;9.30;2.80;;;9.30;1.00;;;;;;4896016;29;20452;-79
2023/03/25 00:43:49;;;;;;;6.87;2.40;;;9.30;1.00;;;;;;4896641;29;20494;-80
2023/03/25 00:46:16;;;;;;;6.33;2.40;;;9.30;1.00;;;;;;4892590;29;20456;-78
2023/03/25 00:48:43;;;;;;;6.87;2.60;;;9.40;1.00;;;;;;4895188;29;20479;-80
2023/03/25 00:51:20;;;;;;;8.33;2.30;;;9.30;1.00;;;;;;4895336;29;20508;-77
2023/03/25 00:53:52;;;;;;;6.27;2.13;;;9.30;1.00;;;;;;4903071;29;21081;-79
2023/03/25 00:56:28;;;;;;;7.37;2.43;;;9.30;1.00;;;;;;4898551;29;20446;-79
2023/03/25 00:58:58;;;;;;;7.90;2.40;;;9.20;1.00;;;;;;4895058;29;20633;-78
2023/03/25 01:01:29;;;;;;;6.63;2.90;;;9.20;1.00;;;;;;4893054;29;20471;-80
2023/03/25 01:03:58;;;;;;;6.10;2.60;;;9.20;1.00;;;;;;4872268;29;20545;-78
2023/03/25 01:06:29;;;;;;;5.67;2.20;;;9.20;1.00;;;;;;4869253;29;21502;-80
2023/03/25 01:08:58;;;;;;;7.90;2.50;;;9.10;1.00;;;;;;4873424;29;20460;-79
2023/03/25 01:11:28;;;;;;;7.00;2.27;;;9.10;1.00;;;;;;4893292;29;21016;-78
2023/03/25 01:13:56;;;;;;;6.60;2.40;;;9.10;1.00;;;;;;4887690;29;21402;-80
2023/03/25 01:16:26;;;;;;;6.50;3.00;;;9.10;1.00;;;;;;4888439;29;20463;-81
2023/03/25 01:18:56;;;;;;;7.13;2.30;;;9.10;1.00;;;;;;4893553;29;20460;-80
2023/03/25 01:21:26;;;;;;;7.47;2.57;;;9.10;1.00;;;;;;4892660;29;20916;-80
2023/03/25 01:23:54;;;;;;;5.70;1.97;;;9.10;1.00;;;;;;4890542;29;20471;-80
2023/03/25 01:26:24;;;;;;;7.67;2.50;;;9.10;1.00;;;;;;4892343;29;20452;-80
2023/03/25 01:28:56;;;;;;;6.27;2.50;;;9.00;1.00;;;;;;4885844;29;20551;-80
2023/03/25 01:31:29;;;;;;;7.00;2.17;;;9.00;1.00;;;;;;4891051;29;20472;-81
2023/03/25 01:33:57;;;;;;;7.57;2.33;;;9.10;1.00;;;;;;4888768;29;20471;-80
2023/03/25 01:36:31;;;;;;;6.63;2.83;;;9.00;1.00;;;;;;4889359;29;20638;-81
2023/03/25 01:39:00;;;;;;;8.13;2.87;;;9.00;1.00;;;;;;4891595;29;20499;-81
2023/03/25 01:41:28;;;;;;;6.80;2.10;;;9.00;1.00;;;;;;4885729;29;20439;-79
2023/03/25 01:44:06;;;;;;;6.10;2.10;;;9.00;1.00;;;;;;4887421;29;20436;-80
2023/03/25 01:46:33;;;;;;;6.60;1.90;;;9.00;1.00;;;;;;4885425;29;20463;-79
2023/03/25 01:49:02;;;;;;;5.57;2.17;;;9.00;1.00;;;;;;4895177;29;20455;-81
2023/03/25 01:51:35;;;;;;;7.50;2.37;;;9.00;1.00;;;;;;4893427;29;20543;-80
2023/03/25 01:54:04;;;;;;;5.93;2.07;;;9.00;1.00;;;;;;4894922;29;20506;-79
2023/03/25 01:56:35;;;;;;;7.40;2.63;;;9.00;1.00;;;;;;4895237;29;20482;-80
2023/03/25 01:59:06;;;;;;;5.70;2.20;;;8.90;1.00;;;;;;4893026;29;20471;-82
2023/03/25 02:01:35;;;;;;;7.40;2.10;;;8.90;1.00;;;;;;4891705;29;20471;-80
2023/03/25 02:04:08;;;;;;;6.30;2.40;;;8.90;1.00;;;;;;4881286;29;20502;-80
2023/03/25 02:06:41;;;;;;;7.73;2.87;;;8.90;1.00;;;;;;4892620;29;21306;-81
2023/03/25 02:09:10;;;;;;;6.30;2.47;;;8.90;1.00;;;;;;4894873;29;20648;-79
2023/03/25 02:11:38;;;;;;;6.80;2.27;;;9.00;1.00;;;;;;4892416;29;20480;-78
2023/03/25 02:14:12;;;;;;;7.93;2.10;;;9.00;1.00;;;;;;4890874;29;20479;-79
2023/03/25 02:16:48;;;;;;;8.27;2.60;;;8.90;1.00;;;;;;4898020;29;21404;-79
2023/03/25 02:20:08;;;;;;;6.87;2.57;;;8.90;1.00;;;;;;4900175;29;20532;-79
2023/03/25 02:23:07;;;;;;;7.10;2.50;;;8.90;1.00;;;;;;4877820;29;20471;-79
2023/03/25 02:25:58;;;;;;;5.43;2.27;;;9.00;1.00;;;;;;4898002;29;20479;-80
2023/03/25 02:28:35;;;;;;;7.33;2.60;;;9.10;1.00;;;;;;4898594;29;20467;-78
2023/03/25 02:31:24;;;;;;;7.20;2.50;;;9.20;1.00;;;;;;4875885;29;20550;-80
2023/03/25 02:34:30;;;;;;;8.23;2.70;;;9.20;1.00;;;;;;4892136;29;20492;-80
2023/03/25 02:37:19;;;;;;;7.47;3.07;;;9.30;1.00;;;;;;4898332;29;20495;-80
2023/03/25 02:39:55;;;;;;;7.93;3.10;;;9.30;1.00;;;;;;4895970;29;20542;-81
2023/03/25 02:42:33;;;;;;;5.80;2.40;;;9.40;1.00;;;;;;4895912;29;20522;-79
2023/03/25 02:45:06;;;;;;;6.50;2.40;;;9.40;1.00;;;;;;4895417;29;20467;-80
2023/03/25 02:47:37;;;;;;;6.33;2.40;;;9.40;1.00;;;;;;4897401;29;20494;-80
2023/03/25 02:50:12;;;;;;;9.20;2.77;;;9.50;1.00;;;;;;4893236;29;20469;-79
2023/03/25 02:52:43;;;;;;;7.13;2.67;;;9.60;1.00;;;;;;4893205;29;21387;-79
2023/03/25 02:55:16;;;;;;;6.43;2.80;;;9.60;1.00;;;;;;4897130;29;20463;-79
2023/03/25 02:57:47;;;;;;;6.70;2.50;;;9.60;1.00;;;;;;4893551;29;20835;-80
2023/03/25 03:00:22;;;;;;;7.13;2.67;;;9.60;1.00;;;;;;4892710;29;21243;-78
2023/03/25 03:02:58;;;;;;;8.33;2.80;;;9.60;1.00;;;;;;4887614;29;20523;-79
2023/03/25 03:05:28;;;;;;;6.20;2.87;;;9.60;1.00;;;;;;4889399;29;20470;-79
2023/03/25 03:08:17;;;;;;;6.23;2.90;;;9.60;1.00;;;;;;4890440;29;20487;-79
2023/03/25 03:10:58;;;;;;;6.43;2.40;;;9.60;1.00;;;;;;4891822;29;20471;-80
2023/03/25 03:13:38;;;;;;;7.37;2.60;;;9.60;1.00;;;;;;4891261;29;20520;-80
2023/03/25 03:16:14;;;;;;;5.70;2.40;;;9.60;1.00;;;;;;4887154;29;20616;-80
2023/03/25 03:18:50;;;;;;;6.80;2.63;;;9.60;1.00;;;;;;4891071;29;20474;-78
2023/03/25 03:21:32;;;;;;;7.50;3.13;;;9.70;1.00;;;;;;4893258;29;21330;-79
2023/03/25 03:24:05;;;;;;;8.10;2.73;;;9.70;1.00;;;;;;4891490;29;20492;-79
2023/03/25 03:26:38;;;;;;;9.83;3.70;;;9.70;1.00;;;;;;4891299;29;20471;-79
2023/03/25 03:29:11;;;;;;;8.23;3.00;;;9.80;1.00;;;;;;4894555;29;20468;-79
2023/03/25 03:31:45;;;;;;;6.80;2.70;;;9.90;1.00;;;;;;4884078;29;20504;-80
2023/03/25 03:34:17;;;;;;;8.93;2.90;;;9.90;1.00;;;;;;4888447;29;21123;-79
2023/03/25 03:36:47;;;;;;;8.90;3.17;;;9.80;1.00;;;;;;4883651;29;20550;-79
2023/03/25 03:39:21;;;;;;;7.90;2.97;;;9.70;1.00;;;;;;4874659;29;20460;-78
2023/03/25 03:41:53;;;;;;;8.30;2.60;;;9.60;1.00;;;;;;4889400;29;20578;-79
2023/03/25 03:44:27;;;;;;;8.30;3.10;;;9.50;1.00;;;;;;4888223;29;20554;-78
2023/03/25 03:46:57;;;;;;;7.20;2.53;;;9.40;1.00;;;;;;4889039;29;20455;-78
2023/03/25 03:49:29;;;;;;;8.90;2.70;;;9.30;1.00;;;;;;4889934;29;20483;-77
2023/03/25 03:52:21;;;;;;;7.50;2.53;;;9.20;1.00;;;;;;4896017;29;20478;-78
2023/03/25 03:54:52;;;;;;;7.83;2.37;;;9.10;1.00;;;;;;4891683;29;20502;-79
2023/03/25 03:57:27;;;;;;;7.70;2.30;;;9.10;1.00;;;;;;4888727;29;20488;-78
2023/03/25 04:00:01;;;;;;;8.23;2.80;;;9.00;1.00;;;;;;4889484;29;20546;-78
2023/03/25 04:02:34;;;;;;;10.27;2.73;;;9.00;1.00;;;;;;4887888;29;20498;-78
2023/03/25 04:05:01;;;;;;;6.63;2.50;;;9.00;1.00;;;;;;4876598;29;20468;-78
2023/03/25 04:07:37;;;;;;;6.77;2.73;;;9.00;1.00;;;;;;4888613;29;21209;-77
2023/03/25 04:10:13;;;;;;;7.10;2.70;;;9.10;1.00;;;;;;4883140;29;20503;-78
2023/03/25 04:12:45;;;;;;;7.37;2.40;;;9.00;1.00;;;;;;4882684;29;20558;-78
2023/03/25 04:15:14;;;;;;;8.30;2.57;;;9.10;1.00;;;;;;4884873;29;20487;-76
2023/03/25 04:17:41;;;;;;;7.30;2.67;;;9.10;1.00;;;;;;4890234;29;21162;-78
2023/03/25 04:20:13;;;;;;;6.20;2.40;;;9.10;1.00;;;;;;4876723;29;20506;-77
2023/03/25 04:22:44;;;;;;;8.27;2.80;;;9.10;1.00;;;;;;4886849;29;20812;-78
2023/03/25 04:25:12;;;;;;;8.60;2.53;;;9.10;1.00;;;;;;4890855;29;20466;-79
2023/03/25 04:27:47;;;;;;;8.57;2.23;;;9.10;1.00;;;;;;4890964;29;20615;-78
2023/03/25 04:30:16;;;;;;;6.20;2.10;;;9.10;1.00;;;;;;4891062;29;20563;-79
2023/03/25 04:32:45;;;;;;;6.13;2.10;;;9.10;1.00;;;;;;4890740;29;21047;-79
2023/03/25 04:35:13;;;;;;;7.40;2.00;;;9.10;1.00;;;;;;4889837;29;20469;-77
2023/03/25 04:37:44;;;;;;;6.20;2.10;;;9.10;1.00;;;;;;4887720;29;20523;-78
2023/03/25 04:40:12;;;;;;;6.30;1.73;;;9.10;1.00;;;;;;4888323;29;20544;-79
2023/03/25 04:42:45;;;;;;;7.57;2.10;;;9.20;1.00;;;;;;4889581;29;20467;-78
2023/03/25 04:45:15;;;;;;;7.07;1.90;;;9.10;1.00;;;;;;4883286;29;20688;-80
2023/03/25 04:47:45;;;;;;;6.93;2.17;;;9.20;1.00;;;;;;4885512;29;20536;-79
2023/03/25 04:50:19;;;;;;;6.17;2.00;;;9.10;1.00;;;;;;4885956;29;20910;-79
2023/03/25 04:52:46;;;;;;;7.17;1.90;;;9.10;1.00;;;;;;4886141;29;20468;-79
2023/03/25 04:55:16;;;;;;;7.00;1.83;;;9.10;1.00;;;;;;4883477;29;20432;-78
2023/03/25 04:57:46;;;;;;;7.70;2.23;;;9.10;1.00;;;;;;4886714;29;20440;-78
2023/03/25 05:00:17;;;;;;;8.00;2.17;;;9.00;1.00;;;;;;4885203;29;20485;-80
2023/03/25 05:02:50;;;;;;;6.40;2.10;;;9.00;1.00;;;;;;4875404;29;22776;-79
2023/03/25 05:05:19;;;;;;;7.40;2.20;;;8.90;1.00;;;;;;4880238;29;20459;-79
2023/03/25 05:07:48;;;;;;;6.47;1.60;;;8.90;1.00;;;;;;4871299;29;20476;-77
2023/03/25 05:10:16;;;;;;;6.13;2.27;;;8.90;1.00;;;;;;4884931;29;21113;-78
2023/03/25 05:12:44;;;;;;;7.20;1.70;;;8.80;1.00;;;;;;4885090;29;20456;-79
2023/03/25 05:15:13;;;;;;;7.13;1.67;;;8.80;1.00;;;;;;4882473;29;20508;-78
2023/03/25 05:17:42;;;;;;;8.57;2.43;;;8.80;1.00;;;;;;4886026;29;20471;-79
2023/03/25 05:20:11;;;;;;;8.13;1.97;;;8.70;1.00;;;;;;4893836;29;20476;-79
2023/03/25 05:22:38;;;;;;;8.37;2.40;;;8.70;1.00;;;;;;4885592;29;20459;-79
2023/03/25 05:25:06;;;;;;;6.27;1.90;;;8.70;1.00;;;;;;4886760;29;20459;-79
2023/03/25 05:27:34;;;;;;;6.80;2.50;;;8.60;1.00;;;;;;4893439;29;20463;-80
2023/03/25 05:30:03;;;;;;;7.90;2.00;;;8.60;1.00;;;;;;4891924;29;20514;-79
2023/03/25 05:32:32;;;;;;;7.00;2.30;;;8.60;1.00;;;;;;4890816;29;20472;-79
2023/03/25 05:35:00;;;;;;;7.30;2.40;;;8.60;1.00;;;;;;4889564;29;20471;-78
2023/03/25 05:37:27;;;;;;;9.07;2.00;;;8.60;1.00;;;;;;4886787;29;20463;-79
2023/03/25 05:39:54;;;;;;;9.17;2.30;;;8.60;1.00;;;;;;4891621;29;20593;-78
2023/03/25 05:42:21;;;;;;;7.30;2.07;;;8.60;1.00;;;;;;4892837;29;20471;-80
2023/03/25 05:44:50;;;;;;;7.23;2.30;;;8.60;1.00;;;;;;4889712;29;20582;-79
2023/03/25 05:47:22;;;;;;;8.90;2.27;;;8.70;1.00;;;;;;4888148;29;20486;-80
2023/03/25 05:49:50;;;;;;;9.30;2.67;;;8.70;1.00;;;;;;4891555;29;20535;-79
2023/03/25 05:52:18;;;;;;;6.27;2.10;;;8.80;1.00;;;;;;4889029;29;20467;-79
2023/03/25 05:54:50;;;;;;;6.60;1.77;;;8.90;1.00;;;;;;4886171;29;20495;-79
2023/03/25 05:57:17;;;;;;;7.27;1.53;;;8.90;1.00;;;;;;4886229;29;20653;-79
2023/03/25 05:59:45;;;;;;;7.00;2.03;;;9.00;1.00;;;;;;4884504;29;20472;-79
2023/03/25 06:02:21;;;;;;;6.33;1.43;;;9.10;1.00;;;;;;4887022;29;20510;-80
2023/03/25 06:04:51;;;;;;;6.07;1.57;;;9.20;1.00;;;;;;4889367;29;20448;-79
2023/03/25 06:07:21;;;;;;;7.70;1.50;;;9.20;1.00;;;;;;4890884;29;20485;-79
2023/03/25 06:09:48;;;;;;;7.03;1.80;;;9.20;1.00;;;;;;4874650;29;20486;-80
2023/03/25 06:12:18;;;;;;;8.87;2.47;;;9.30;1.00;;;;;;4889511;29;21335;-78
2023/03/25 06:14:45;;;;;;;6.50;1.60;;;9.30;1.00;;;;;;4889939;29;20501;-79
2023/03/25 06:17:13;;;;;;;7.77;1.60;;;9.40;1.00;;;;;;4889496;29;20469;-79
2023/03/25 06:19:41;;;;;;;5.80;1.40;;;9.50;1.00;;;;;;4888464;29;20477;-80
2023/03/25 06:22:10;;;;;;;5.70;1.50;;;9.50;1.00;;;;;;4886244;29;20463;-79
2023/03/25 06:24:39;;;;;;;6.67;1.57;;;9.50;1.00;;;;;;4874361;29;20467;-80
2023/03/25 06:27:07;;;;;;;6.03;1.27;;;9.50;1.00;;;;;;4888583;29;20483;-79
2023/03/25 06:29:36;;;;;;;11.87;6.03;;;9.40;1.00;;;;;;4886615;29;21219;-79
2023/03/25 06:32:03;;;;;;;6.03;1.87;;;9.40;1.00;;;;;;4893001;29;20915;-78
2023/03/25 06:34:31;;;;;;;5.47;1.30;;;9.40;1.00;;;;;;4889270;29;20572;-79
2023/03/25 06:36:58;;;;;;;6.20;1.87;;;9.50;1.00;;;;;;4887772;29;20833;-79
2023/03/25 06:39:30;;;;;;;6.13;1.20;;;9.60;1.00;;;;;;4885701;29;20526;-78
2023/03/25 06:41:57;;;;;;;4.67;1.03;;;9.60;1.00;;;;;;4887362;29;20533;-80
2023/03/25 06:44:24;;;;;;;5.17;1.07;;;9.60;1.00;;;;;;4871842;29;20519;-79
2023/03/25 06:46:52;;;;;;;9.50;1.30;;;9.60;1.00;;;;;;4877009;29;21196;-80
2023/03/25 06:49:19;;;;;;;5.30;1.50;;;9.60;1.00;;;;;;4892100;29;21134;-80
2023/03/25 06:51:47;;;;;;;5.67;1.50;;;9.60;1.00;;;;;;4874039;29;20476;-79
2023/03/25 06:54:14;;;;;;;7.70;1.40;;;9.60;1.00;;;;;;4892645;29;20463;-79
2023/03/25 06:56:43;;;;;;;5.20;1.23;;;9.60;1.00;;;;;;4887737;29;20554;-80
2023/03/25 06:59:10;;;;;;;5.00;1.00;;;9.60;1.00;;;;;;4894741;29;21209;-79
2023/03/25 07:01:38;;;;;;;5.90;1.00;;;9.60;1.00;;;;;;4889683;29;20611;-80
2023/03/25 07:04:05;;;;;;;5.43;1.20;;;9.60;1.00;;;;;;4887171;29;20497;-80
2023/03/25 07:06:32;;;;;;;5.60;1.40;;;9.60;1.00;;;;;;4889214;29;20470;-80
2023/03/25 07:09:01;;;;;;;6.03;1.20;;;9.60;1.00;;;;;;4885159;29;21571;-80
2023/03/25 07:11:30;;;;;;;5.30;1.20;;;9.60;1.00;;;;;;4889348;29;20541;-80
2023/03/25 07:14:00;;;;;;;5.13;1.20;;;9.60;1.00;;;;;;4873403;29;20461;-79
2023/03/25 07:16:27;;;;;;;4.77;1.10;;;9.70;1.00;;;;;;4882579;29;20464;-79
2023/03/25 07:18:55;;;;;;;5.03;1.30;;;9.80;1.00;;;;;;4888403;29;20543;-78
2023/03/25 07:21:22;;;;;;;5.50;1.07;;;9.80;1.00;;;;;;4886480;29;20459;-79
2023/03/25 07:23:50;;;;;;;4.90;1.20;;;9.80;1.00;;;;;;4889720;29;20555;-79
2023/03/25 07:26:17;;;;;;;7.33;1.30;;;9.90;1.00;;;;;;4887889;29;20471;-79
2023/03/25 07:28:46;;;;;;;5.00;1.20;;;10.00;1.00;;;;;;4886145;29;21328;-81
2023/03/25 07:31:16;;;;;;;6.20;1.03;;;10.10;1.00;;;;;;4880861;29;20435;-79
2023/03/25 07:33:43;;;;;;;6.23;1.50;;;10.20;1.00;;;;;;4896460;29;20448;-80
2023/03/25 07:36:13;;;;;;;7.60;1.40;;;10.30;1.00;;;;;;4897004;29;20476;-78
2023/03/25 07:38:40;;;;;;;6.77;1.60;;;10.50;1.00;;;;;;4900675;28;20576;-79
2023/03/25 07:41:09;;;;;;;9.03;1.50;;;10.70;1.00;;;;;;4900732;29;20480;-80
2023/03/25 07:43:37;;;;;;;6.30;1.30;;;11.00;1.00;;;;;;4890825;29;20520;-81
2023/03/25 07:46:06;;;;;;;6.13;1.50;;;11.20;1.00;;;;;;4888627;29;20484;-79
2023/03/25 07:48:37;;;;;;;6.73;1.47;;;11.40;1.00;;;;;;4888954;29;20481;-80
2023/03/25 07:51:07;;;;;;;7.00;1.67;;;11.60;1.00;;;;;;4891671;29;20485;-82
2023/03/25 07:53:37;;;;;;;6.13;1.67;;;11.80;1.00;;;;;;4896214;29;20525;-82
2023/03/25 07:56:05;;;;;;;5.97;1.27;;;12.10;1.00;;;;;;4887679;29;20465;-80
2023/03/25 07:58:36;;;;;;;6.60;1.70;;;12.30;1.00;;;;;;4888182;29;20466;-80
2023/03/25 08:01:04;;;;;;;7.10;1.30;;;12.60;1.00;;;;;;4879844;29;20469;-80
2023/03/25 08:03:32;;;;;;;7.07;1.90;;;12.70;1.00;;;;;;4880852;29;20465;-80
2023/03/25 08:06:02;;;;;;;7.13;1.60;;;13.10;1.00;;;;;;4884786;29;20484;-80
2023/03/25 08:08:30;;;;;;;5.60;1.30;;;13.10;1.00;;;;;;4891915;29;20561;-80
2023/03/25 08:10:57;;;;;;;7.80;1.40;;;13.20;1.00;;;;;;4883470;29;20458;-79
2023/03/25 08:13:25;;;;;;;7.43;1.30;;;13.10;1.00;;;;;;4894072;29;21243;-80
2023/03/25 08:15:52;;;;;;;5.60;1.20;;;12.90;1.00;;;;;;4889948;29;20430;-81
2023/03/25 08:18:20;;;;;;;7.23;1.20;;;12.80;1.00;;;;;;4885809;29;21142;-79
2023/03/25 08:20:49;;;;;;;4.30;1.33;;;13.00;1.00;;;;;;4894798;29;20526;-80
2023/03/25 08:23:18;;;;;;;6.43;1.20;;;13.30;1.00;;;;;;4896633;29;20561;-80
2023/03/25 08:25:48;;;;;;;5.87;1.80;;;13.40;1.00;;;;;;4891551;29;20509;-80
2023/03/25 08:28:20;;;;;;;4.83;1.10;;;13.60;1.00;;;;;;4896110;29;20651;-79
2023/03/25 08:30:48;;;;;;;4.80;1.00;;;13.70;1.00;;;;;;4892686;29;21308;-79
2023/03/25 08:33:17;;;;;;;4.90;1.20;;;13.70;1.00;;;;;;4893034;29;21450;-80
2023/03/25 08:35:44;;;;;;;5.23;1.30;;;13.90;1.00;;;;;;4893462;29;20518;-80
2023/03/25 08:38:13;;;;;;;6.40;1.47;;;14.10;1.00;;;;;;4896956;29;20518;-79
2023/03/25 08:40:44;;;;;;;6.30;1.57;;;14.40;1.00;;;;;;4891964;29;20467;-79
2023/03/25 08:43:14;;;;;;;4.93;1.10;;;14.60;1.00;;;;;;4893381;29;20440;-80
2023/03/25 08:45:41;;;;;;;5.77;1.40;;;14.40;1.00;;;;;;4893006;29;20580;-79
2023/03/25 08:48:08;;;;;;;4.63;0.87;;;14.40;1.00;;;;;;4887942;29;20485;-80
2023/03/25 08:50:35;;;;;;;4.07;0.70;;;14.10;1.00;;;;;;4889933;29;20643;-82
2023/03/25 08:53:03;;;;;;;4.70;1.10;;;13.90;1.00;;;;;;4877679;29;20454;-80
2023/03/25 08:55:30;;;;;;;5.10;1.47;;;13.70;1.00;;;;;;4888474;29;20551;-80
2023/03/25 08:58:01;;;;;;;4.53;0.83;;;13.70;1.00;;;;;;4895871;29;20448;-78
2023/03/25 09:00:34;;;;;;;6.10;1.27;;;13.70;1.00;;;;;;4889714;29;20466;-81
2023/03/25 09:03:03;;;;;;;5.40;1.10;;;13.70;1.00;;;;;;4888734;29;20601;-79
2023/03/25 09:05:30;;;;;;;4.30;1.13;;;13.90;1.00;;;;;;4887939;29;20533;-80
2023/03/25 09:07:59;;;;;;;5.80;1.47;;;14.10;1.00;;;;;;4896997;29;20556;-79
2023/03/25 09:10:27;;;;;;;4.83;1.50;;;14.10;1.00;;;;;;4895564;29;20554;-78
2023/03/25 09:12:59;;;;;;;5.43;1.17;;;13.90;1.00;;;;;;4895539;29;20474;-78
2023/03/25 09:15:29;;;;;;;4.50;1.20;;;13.70;1.00;;;;;;4895448;29;20501;-80
2023/03/25 09:17:57;;;;;;;4.77;1.20;;;13.50;1.00;;;;;;4889298;29;20729;-83
2023/03/25 09:20:24;;;;;;;5.03;1.30;;;13.40;1.00;;;;;;4898584;29;20639;-80
2023/03/25 09:22:54;;;;;;;5.80;1.30;;;13.20;1.00;;;;;;4890814;29;20605;-79
2023/03/25 09:25:22;;;;;;;4.53;1.10;;;13.20;1.00;;;;;;4898734;29;20561;-80
2023/03/25 09:27:49;;;;;;;4.80;1.37;;;13.30;1.00;;;;;;4896548;29;21009;-79
2023/03/25 09:30:27;;;;;;;4.30;1.00;;;13.90;1.00;;;;;;4900802;29;21174;-81
2023/03/25 09:32:54;;;;;;;4.20;1.23;;;14.50;1.00;;;;;;4884634;29;20477;-80
2023/03/25 09:35:21;;;;;;;6.33;1.37;;;14.50;1.00;;;;;;4896573;29;21228;-81
2023/03/25 09:37:52;;;;;;;6.30;1.40;;;14.30;1.00;;;;;;4892186;29;20446;-79
2023/03/25 09:40:20;;;;;;;4.10;1.00;;;14.00;1.00;;;;;;4895637;29;20557;-80
2023/03/25 09:42:58;;;;;;;4.20;1.03;;;13.80;1.00;;;;;;4897272;29;20496;-80
2023/03/25 09:45:35;;;;;;;4.00;0.83;;;13.60;1.00;;;;;;4890155;29;21287;-83
2023/03/25 09:48:10;;;;;;;7.50;1.00;;;13.40;1.00;;;;;;4897965;29;20473;-80
2023/03/25 09:50:37;;;;;;;4.27;1.27;;;13.20;1.00;;;;;;4894842;29;20444;-81
2023/03/25 09:53:17;;;;;;;4.13;1.20;;;13.10;1.00;;;;;;4898401;29;20548;-80
2023/03/25 09:55:46;;;;;;;5.10;1.43;;;13.10;1.00;;;;;;4895267;29;20469;-79
2023/03/25 09:58:34;;;;;;;4.67;1.20;;;13.20;1.00;;;;;;4898169;29;20449;-81
2023/03/25 10:01:25;;;;;;;4.37;1.10;;;13.50;1.00;;;;;;4894178;29;20494;-79
2023/03/25 10:04:02;;;;;;;4.90;1.10;;;14.00;1.00;;;;;;4896043;29;20445;-80
2023/03/25 10:06:36;;;;;;;5.00;1.00;;;14.00;1.00;;;;;;4895425;29;20650;-78
2023/03/25 10:09:23;;;;;;;3.90;1.10;;;14.50;1.00;;;;;;4895222;29;21067;-80
2023/03/25 10:11:57;;;;;;;6.93;1.50;;;15.70;1.00;;;;;;4894176;29;20471;-81
2023/03/25 10:14:33;;;;;;;7.03;1.40;;;15.40;1.00;;;;;;4898086;29;20502;-83
2023/03/25 10:17:15;;;;;;;5.23;1.00;;;14.90;1.00;;;;;;4897723;29;20431;-82
2023/03/25 10:19:57;;;;;;;4.70;1.17;;;14.50;1.00;;;;;;4897368;29;21044;-80
2023/03/25 10:22:29;;;;;;;3.73;0.90;;;14.10;1.00;;;;;;4898429;29;20483;-79
2023/03/25 10:25:01;;;;;;;4.90;1.00;;;13.80;1.00;;;;;;4906291;29;20515;-80
2023/03/25 10:27:34;;;;;;;5.57;2.63;;;13.60;1.00;;;;;;4898912;29;20474;-80
2023/03/25 10:30:11;;;;;;;3.40;0.90;;;13.60;1.00;;;;;;4937505;28;20460;-80
2023/03/25 10:32:44;;;;;;;4.00;1.00;;;13.70;1.00;;;;;;4936165;28;20579;-79
2023/03/25 10:35:16;;;;;;;4.13;1.33;;;14.10;1.00;;;;;;4937971;28;20548;-80
2023/03/25 10:37:43;;;;;;;3.73;1.50;;;14.50;1.00;;;;;;4939814;28;20469;-80
2023/03/25 10:40:18;;;;;;;5.60;2.50;;;15.40;1.00;;;;;;4940855;28;20532;-80
2023/03/25 10:42:54;;;;;;;3.40;1.00;;;16.10;1.00;;;;;;4940142;28;20530;-79
2023/03/25 10:45:30;;;;;;;3.90;0.93;;;16.30;1.00;;;;;;4925915;29;20457;-81
2023/03/25 10:48:06;;;;;;;6.47;1.20;;;15.80;1.00;;;;;;4942629;28;20588;-80
2023/03/25 10:50:33;;;;;;;4.37;1.10;;;15.30;1.00;;;;;;4940304;28;20441;-79
2023/03/25 10:53:01;;;;;;;3.20;0.80;;;15.10;1.00;;;;;;4921098;29;20454;-80
2023/03/25 10:55:33;;;;;;;6.17;1.50;;;15.30;1.00;;;;;;4941663;28;20920;-81
2023/03/25 10:58:01;;;;;;;5.20;1.40;;;17.50;1.00;;;;;;4938431;28;20435;-81
2023/03/25 11:00:29;;;;;;;3.47;1.00;;;19.00;1.00;;;;;;4918980;29;20969;-79
2023/03/25 11:03:00;;;;;;;5.80;1.30;;;20.00;1.00;;;;;;4933974;28;20513;-79
2023/03/25 11:05:30;;;;;;;4.33;1.10;;;20.80;1.00;;;;;;4932759;28;20464;-79
2023/03/25 11:08:02;;;;;;;2.80;1.00;;;20.80;1.00;;;;;;4946001;28;21159;-80
2023/03/25 11:10:33;;;;;;;6.03;0.90;;;22.20;1.00;;;;;;4945902;28;20478;-78
2023/03/25 11:13:02;;;;;;;3.70;2.17;;;23.10;1.00;;;;;;4947346;28;21099;-79
2023/03/25 11:15:33;;;;;;;3.40;1.30;;;22.60;1.00;;;;;;4950279;28;20527;-80
2023/03/25 11:18:05;;;;;;;3.10;1.20;;;21.30;1.00;;;;;;4948196;28;20460;-80
2023/03/25 11:20:38;;;;;;;4.50;1.30;;;19.70;1.00;;;;;;4948192;28;20449;-80
2023/03/25 11:23:14;;;;;;;2.40;0.87;;;18.20;1.00;;;;;;4950029;28;20497;-79
2023/03/25 11:25:42;;;;;;;3.37;0.90;;;17.40;1.00;;;;;;4949663;28;20434;-79
2023/03/25 11:28:20;;;;;;;2.70;0.90;;;17.10;1.00;;;;;;4935195;28;20429;-77
2023/03/25 11:31:11;;;;;;;2.87;0.87;;;17.20;1.00;;;;;;4953873;28;20473;-78
2023/03/25 11:33:41;;;;;;;2.97;0.87;;;17.80;1.00;;;;;;4954999;28;21188;-78
2023/03/25 11:36:25;;;;;;;3.87;1.30;;;17.40;1.00;;;;;;4953932;28;21492;-81
2023/03/25 11:38:57;;;;;;;3.70;1.43;;;16.60;1.00;;;;;;4958364;28;20476;-80
2023/03/25 11:41:27;;;;;;;2.60;1.00;;;16.40;1.00;;;;;;4955108;28;20441;-80
2023/03/25 11:43:55;;;;;;;2.77;1.27;;;17.30;1.00;;;;;;4956891;28;20426;-80
2023/03/25 11:46:23;;;;;;;4.70;1.57;;;17.80;1.00;;;;;;4954551;28;20425;-81
2023/03/25 11:48:53;;;;;;;4.20;1.30;;;17.40;1.00;;;;;;4954559;28;21254;-82
2023/03/25 11:51:23;;;;;;;2.10;0.90;;;17.00;1.00;;;;;;4956562;28;20516;-80
2023/03/25 11:53:55;;;;;;;2.73;1.07;;;16.80;1.00;;;;;;4955149;28;20488;-79
2023/03/25 11:56:26;;;;;;;3.23;1.03;;;16.40;1.00;;;;;;4957322;28;20494;-80
2023/03/25 11:58:58;;;;;;;3.70;1.23;;;16.20;1.00;;;;;;4954705;28;20501;-79
2023/03/25 12:01:29;;;;;;;2.40;1.20;;;15.60;1.00;;;;;;4951129;28;20548;-77
2023/03/25 12:04:15;;;;;;;2.00;0.70;;;16.60;1.00;;;;;;4953859;28;20438;-81
2023/03/25 12:06:57;;;;;;;2.03;0.73;;;18.20;1.00;;;;;;4953085;28;21408;-80
2023/03/25 12:09:26;;;;;;;3.13;1.00;;;19.30;1.00;;;;;;4957694;28;20436;-80
2023/03/25 12:12:31;;;;;;;3.30;0.93;;;19.50;1.00;;;;;;4949338;28;20525;-79
2023/03/25 12:15:11;;;;;;;2.23;0.73;;;18.60;1.00;;;;;;4954966;28;20446;-80
2023/03/25 12:17:50;;;;;;;2.37;1.00;;;18.90;1.00;;;;;;4942981;28;20468;-81
2023/03/25 12:20:28;;;;;;;2.80;0.90;;;19.50;1.00;;;;;;4957818;28;20506;-80
2023/03/25 12:23:02;;;;;;;3.07;1.20;;;18.70;1.00;;;;;;4959802;28;20443;-80
2023/03/25 12:25:43;;;;;;;2.53;1.03;;;18.30;1.00;;;;;;4955619;28;20518;-79
2023/03/25 12:28:39;;;;;;;3.17;1.20;;;18.80;1.00;;;;;;4961168;28;20471;-79
2023/03/25 12:31:20;;;;;;;2.93;1.10;;;18.60;1.00;;;;;;4953032;28;20457;-79
2023/03/25 12:33:57;;;;;;;2.13;0.80;;;18.00;1.00;;;;;;4957283;28;21629;-79
2023/03/25 12:36:39;;;;;;;2.50;0.83;;;17.70;1.00;;;;;;4964454;28;20458;-80
2023/03/25 12:39:26;;;;;;;2.80;1.00;;;17.50;1.00;;;;;;4958132;28;20556;-80
2023/03/25 12:42:05;;;;;;;2.37;0.80;;;17.20;1.00;;;;;;4960021;28;20861;-80
2023/03/25 12:44:47;;;;;;;2.20;0.77;;;16.90;1.00;;;;;;4956761;28;20480;-81
2023/03/25 12:47:23;;;;;;;3.30;0.90;;;16.60;1.00;;;;;;4942267;28;20454;-79
2023/03/25 12:50:29;;;;;;;2.10;0.63;;;17.60;1.00;;;;;;4950370;28;20478;-80
2023/03/25 12:53:04;;;;;;;2.70;0.80;;;19.00;1.00;;;;;;4952069;28;20574;-80
2023/03/25 12:55:58;;;;;;;2.90;0.90;;;19.40;1.00;;;;;;4965168;28;20478;-81
2023/03/25 12:58:46;;;;;;;5.60;0.97;;;19.00;1.00;;;;;;4954565;28;20548;-80
2023/03/25 13:01:27;;;;;;;2.00;0.60;;;20.20;1.00;;;;;;4953608;28;20488;-79
2023/03/25 13:04:13;;;;;;;2.67;0.80;;;19.90;1.00;;;;;;4955498;28;20663;-80
2023/03/25 13:06:43;;;;;;;2.83;0.77;;;19.20;1.00;;;;;;4960307;28;20442;-79
2023/03/25 13:09:17;;;;;;;2.20;0.83;;;18.80;1.00;;;;;;4961250;28;20584;-80
2023/03/25 13:11:49;;;;;;;3.03;1.00;;;18.00;1.00;;;;;;4957266;28;20443;-80
2023/03/25 13:14:20;;;;;;;2.83;0.80;;;17.20;1.00;;;;;;4966825;28;20424;-80
2023/03/25 13:16:49;;;;;;;2.13;0.70;;;16.40;1.00;;;;;;4967244;28;20455;-79
2023/03/25 13:19:19;;;;;;;2.40;0.70;;;15.80;1.00;;;;;;4960174;28;20442;-79
2023/03/25 13:21:51;;;;;;;2.40;0.77;;;15.40;1.00;;;;;;4956945;28;21365;-79
2023/03/25 13:24:23;;;;;;;3.20;0.83;;;14.90;1.00;;;;;;4957098;28;20755;-77
2023/03/25 13:26:52;;;;;;;2.70;1.00;;;14.50;1.00;;;;;;4956493;28;20488;-78
2023/03/25 13:29:35;;;;;;;3.23;1.00;;;13.80;1.00;;;;;;4941085;28;20439;-78